Flight Track Log - Related Links

Times and Time Zones

All times are in EDT time to prevent confusion due to time zone crossing. See the JBU767 flight status page for this flight to view local times or setup timezone preferences in your user account.

Time Position Orientation Groundspeed Altitude Reporting Facility
EDT Latitude Longitude Course Direction KTS MPH feet Rate Location/Type
Wed 11:27:08 PM 28.4167 -81.3167 144° Southeast 167 192 800  Level Orlando TRACON
Wed 11:28:20 PM 28.3667 -81.2833 150° Southeast 202 232 2,700 1,864 Climbing Orlando TRACON
Wed 11:29:00 PM 28.1940 -80.9204 148° Southeast  Level Estimated
Wed 11:29:20 PM 28.3500 -81.2167 106° East 261 300 4,900  Level Orlando TRACON
Wed 11:30:00 PM 28.1153 -80.7912 146° Southeast  Level Estimated
Wed 11:30:31 PM 28.3231 -81.1181 107° East 283 326 8,000  Level Miami Center
Wed 11:31:00 PM 28.0365 -80.6622 149° Southeast  Level Estimated
Wed 11:31:32 PM 28.3069 -81.0233 101° East 288 331 10,900  Level Miami Center
Wed 11:32:00 PM 27.9575 -80.5335 144° Southeast  Level Estimated
Wed 11:32:31 PM 28.2869 -80.9236 103° East 307 353 12,200  Level Miami Center
Wed 11:33:32 PM 28.2458 -80.8231 115° Southeast 338 389 14,700 2,262 Climbing Miami Center
Wed 11:34:33 PM 28.1644 -80.7542 143° Southeast 345 397 16,800 1,900 Climbing Miami Center
Wed 11:35:32 PM 28.0806 -80.6831 143° Southeast 374 430 18,500 1,780 Climbing Miami Center
Wed 11:36:31 PM 27.9889 -80.6072 144° Southeast 386 444 20,300 1,765 Climbing Miami Center
Wed 11:37:31 PM 27.8989 -80.5314 143° Southeast 405 466 22,000 1,488 Climbing Miami Center
Wed 11:38:32 PM 27.8111 -80.4581 144° Southeast 419 482 23,300 1,400 Climbing Miami Center
Wed 11:39:31 PM 27.7128 -80.3728 142° Southeast 431 496 24,800 1,388 Climbing Miami Center
Wed 11:40:33 PM 27.6319 -80.2672 131° Southeast 436 502 26,100 1,140 Climbing Miami Center
Wed 11:41:32 PM 27.5617 -80.1433 123° Southeast 450 518 27,100 1,068 Climbing Miami Center
Wed 11:42:31 PM 27.4894 -80.0172 123° Southeast 467 537 28,200 1,150 Climbing Miami Center
Wed 11:43:32 PM 27.4089 -79.8794 123° Southeast 481 554 29,400 1,073 Climbing Miami Center
Wed 11:44:34 PM 27.3322 -79.7489 123° Southeast 487 560 30,400 1,000 Climbing Miami Center
Wed 11:45:32 PM 27.2614 -79.6303 124° Southeast 499 574 31,400 872 Climbing Miami Center
Wed 11:46:31 PM 27.1844 -79.4975 123° Southeast 509 586 32,100 750 Climbing Miami Center
Wed 11:47:32 PM 27.0972 -79.3508 124° Southeast 509 586 32,900 700 Climbing Miami Center
Wed 11:48:31 PM 27.0203 -79.2142 122° Southeast 519 597 33,500 600 Climbing Miami Center
Wed 11:49:32 PM 26.9344 -79.0772 125° Southeast 519 597 34,100 650 Climbing Miami Center
Wed 11:50:31 PM 26.8467 -78.9406 126° Southeast 526 605 34,800 650 Climbing Miami Center
Wed 11:51:32 PM 26.7608 -78.8017 125° Southeast 539 620 35,400 545 Climbing Miami Center
Wed 11:52:32 PM 26.6769 -78.6656 125° Southeast 549 632 35,900 545 Climbing Miami Center
Wed 11:53:33 PM 26.5950 -78.5411 126° Southeast 544 626 36,500 555 Climbing Miami Center
Wed 11:54:31 PM 26.5067 -78.4050 126° Southeast 549 632 37,000 254 Climbing Miami Center
Wed 11:55:31 PM 26.4161 -78.2625 125° Southeast 554 638 37,000  Level Miami Center
Wed 11:56:32 PM 26.3256 -78.1244 126° Southeast 554 638 37,000  Level Miami Center
Wed 11:57:32 PM 26.2369 -77.9778 124° Southeast 554 638 37,000  Level Miami Center
Wed 11:58:31 PM 26.1481 -77.8381 125° Southeast 554 638 37,000  Level Miami Center
Wed 11:59:31 PM 26.0569 -77.6983 126° Southeast 554 638 37,000  Level Miami Center
Thu 12:00:34 AM 25.9678 -77.5567 125° Southeast 554 638 37,000  Level Miami Center
Thu 12:01:32 AM 25.8847 -77.4317 126° Southeast 554 638 37,000  Level Miami Center
Thu 12:02:32 AM 25.7869 -77.2811 126° Southeast 548 631 37,000  Level Miami Center
Thu 12:03:32 AM 25.6956 -77.1400 126° Southeast 553 636 37,000  Level Miami Center
Thu 12:04:32 AM 25.6058 -76.9994 125° Southeast 558 642 37,000  Level Miami Center
Thu 12:05:32 AM 25.5117 -76.8589 127° Southeast 558 642 37,000  Level Miami Center
Thu 12:06:31 AM 25.4197 -76.7183 126° Southeast 558 642 37,000  Level Miami Center
Thu 12:07:32 AM 25.3275 -76.5806 127° Southeast 563 648 37,000  Level Miami Center
Thu 12:08:33 AM 25.2353 -76.4406 126° Southeast 563 648 37,000  Level Miami Center
Thu 12:09:31 AM 25.1428 -76.3033 127° Southeast 563 648 37,000  Level Miami Center
Thu 12:10:32 AM 25.0525 -76.1636 125° Southeast 563 648 37,000  Level Miami Center
Thu 12:11:34 AM 24.9619 -76.0289 127° Southeast 563 648 37,000  Level Miami Center
Thu 12:12:33 AM 24.8586 -75.8808 128° Southeast 558 642 37,000  Level Miami Center
Thu 12:13:33 AM 24.7678 -75.7419 126° Southeast 552 635 37,000  Level Miami Center
Thu 12:14:31 AM 24.6747 -75.6056 127° Southeast 552 635 37,000  Level Miami Center
Thu 12:15:32 AM 24.5836 -75.4672 126° Southeast 552 635 37,000  Level Miami Center
Thu 12:16:32 AM 24.4903 -75.3311 127° Southeast 552 635 37,000  Level Miami Center
Thu 12:17:34 AM 24.3967 -75.1931 127° Southeast 552 635 37,000  Level Miami Center
Thu 12:18:33 AM 24.3053 -75.0597 127° Southeast 552 635 37,000  Level Miami Center
Thu 12:19:31 AM 24.2139 -74.9222 126° Southeast 552 635 37,000  Level Miami Center
Thu 12:20:31 AM 24.1200 -74.7869 127° Southeast 557 641 37,000  Level Miami Center
Thu 12:21:32 AM 24.0283 -74.6519 127° Southeast 557 641 37,000  Level Miami Center
Thu 12:22:33 AM 23.9342 -74.5172 127° Southeast 557 641 37,000  Level Miami Center
Thu 12:23:33 AM 23.8400 -74.3828 127° Southeast 557 641 37,000  Level Miami Center
Thu 12:24:32 AM 23.7481 -74.2483 127° Southeast 552 635 37,000  Level Miami Center
Thu 12:25:31 AM 23.6514 -74.1119 128° Southeast 552 635 37,000  Level Miami Center
Thu 12:26:32 AM 23.5550 -73.9758 128° Southeast 552 635 37,000  Level Miami Center
Thu 12:27:31 AM 23.4733 -73.8578 127° Southeast 552 635 37,000  Level Miami Center
Thu 12:28:31 AM 23.3806 -73.7242 127° Southeast 552 635 37,000  Level Miami Center
Thu 12:29:31 AM 23.2881 -73.5908 127° Southeast 552 635 37,000  Level Miami Center
Thu 12:30:33 AM 23.1911 -73.4578 128° Southeast 559 643 37,000  Level Miami Center
Thu 12:31:34 AM 23.0961 -73.3225 127° Southeast 559 643 37,000  Level Miami Center
Thu 12:32:32 AM 23.0031 -73.1875 127° Southeast 554 638 37,000  Level Miami Center
Thu 12:33:31 AM 22.9100 -73.0569 128° Southeast 554 638 37,000  Level Miami Center
Thu 12:34:31 AM 22.8144 -72.9203 127° Southeast 554 638 37,000  Level Miami Center
Thu 12:35:32 AM 22.7192 -72.7903 128° Southeast 554 638 37,000  Level Miami Center
Thu 12:36:31 AM 22.6256 -72.6539 127° Southeast 554 638 37,000  Level Miami Center
Thu 12:37:32 AM 22.5300 -72.5197 128° Southeast 554 638 37,000  Level Miami Center
Thu 12:38:34 AM 22.4322 -72.3861 128° Southeast 559 643 37,000  Level Miami Center
Thu 12:39:33 AM 22.3386 -72.2569 128° Southeast 559 643 37,000  Level Miami Center
Thu 12:40:33 AM 22.2425 -72.1233 128° Southeast 559 643 37,000  Level Miami Center
Thu 12:41:32 AM 22.1467 -71.9903 128° Southeast 559 643 37,000  Level Miami Center
Thu 12:42:31 AM 22.0525 -71.8594 128° Southeast 559 643 37,000  Level Miami Center
Thu 12:43:33 AM 21.9564 -71.7267 128° Southeast 559 643 37,000  Level Miami Center
Thu 12:44:31 AM 21.8600 -71.5939 128° Southeast 559 643 37,000  Level Miami Center
Thu 12:45:33 AM 21.7636 -71.4639 129° Southeast 559 643 37,000  Level Miami Center
Thu 12:46:32 AM 21.6692 -71.3336 128° Southeast 552 635 37,000  Level Miami Center
Thu 12:47:31 AM 21.5769 -71.2036 127° Southeast 552 635 37,000  Level Miami Center
Thu 12:48:33 AM 21.4714 -71.0589 128° Southeast 552 635 37,000  Level Miami Center
Thu 12:49:34 AM 21.3703 -70.9253 129° Southeast 560 644 37,000  Level Miami Center
Thu 12:50:31 AM 21.2736 -70.7983 129° Southeast 560 644 37,000  Level Miami Center
Thu 12:51:33 AM 21.1769 -70.6714 129° Southeast 554 638 37,000  Level Miami Center
Thu 12:52:31 AM 21.0842 -70.5469 129° Southeast 549 632 37,000  Level Miami Center
Thu 12:53:33 AM 20.9892 -70.4181 128° Southeast 549 632 37,000  Level Miami Center
Thu 12:54:34 AM 20.8922 -70.2919 129° Southeast 549 632 37,000  Level Miami Center
Thu 12:55:33 AM 20.7972 -70.1636 128° Southeast 549 632 37,000  Level Miami Center
Thu 12:56:33 AM 20.7042 -70.0394 129° Southeast 549 632 37,000  Level Miami Center
Thu 12:57:33 AM 20.6069 -69.9139 130° Southeast 549 632 37,000  Level Miami Center
Thu 12:58:33 AM 20.5117 -69.7861 129° Southeast 549 632 37,000  Level Miami Center
Thu 12:59:32 AM 20.4164 -69.6606 129° Southeast 549 632 37,000  Level Miami Center
Thu 01:00:31 AM 20.3231 -69.5353 128° Southeast 549 632 37,000  Level Miami Center
Thu 01:01:33 AM 20.2297 -69.4122 129° Southeast 549 632 37,000  Level Miami Center
Thu 01:02:33 AM 20.1319 -69.2872 130° Southeast 549 632 37,000  Level Miami Center
Thu 01:03:32 AM 20.0344 -69.1628 130° Southeast 549 632 37,000  Level Miami Center
Thu 01:04:34 AM 19.9408 -69.0403 129° Southeast 549 632 37,000  Level Miami Center
Thu 01:05:33 AM 19.8472 -68.9158 129° Southeast 549 632 37,000  Level Miami Center
Thu 01:06:31 AM 19.7514 -68.7894 129° Southeast 549 632 37,000  Level Miami Center
Thu 01:07:32 AM 19.6556 -68.6675 130° Southeast 549 632 37,000  Level Miami Center
Thu 01:08:09 AM 19.6000 -68.6000 131° Southeast 540 621 37,000  Level San Juan Center
Thu 01:09:10 AM 19.5167 -68.4667 124° Southeast 550 633 37,000  Level San Juan Center
Thu 01:10:10 AM 19.4167 -68.3500 132° Southeast 540 621 37,000  Level San Juan Center
Thu 01:11:10 AM 19.3167 -68.2167 128° Southeast 540 621 37,000 -50 Level San Juan Center
Thu 01:12:10 AM 19.2333 -68.1000 127° Southeast 540 621 36,900 -1,388 Descending San Juan Center
Thu 01:13:11 AM 19.1333 -67.9667 128° Southeast 550 633 34,200 -2,579 Descending San Juan Center
Thu 01:14:11 AM 19.0333 -67.8500 132° Southeast 540 621 31,700 -2,700 Descending San Juan Center
Thu 01:15:11 AM 18.9333 -67.7333 132° Southeast 510 587 28,800 -2,500 Descending San Juan Center
Thu 01:16:11 AM 18.8500 -67.6333 131° Southeast 470 541 26,700 -2,033 Descending San Juan Center
Thu 01:17:12 AM 18.7500 -67.5500 142° Southeast 470 541 24,700 -1,983 Descending San Juan Center
Thu 01:18:12 AM 18.6667 -67.4500 131° Southeast 450 518 22,700 -1,950 Descending San Juan Center
Thu 01:19:12 AM 18.5833 -67.3667 137° Southeast 430 495 20,800 -1,835 Descending San Juan Center
Thu 01:20:13 AM 18.5000 -67.2833 137° Southeast 410 472 19,000 -1,785 Descending San Juan Center
Thu 01:21:13 AM 18.4000 -67.1833 136° Southeast 400 460 17,200 -1,850 Descending San Juan Center
Thu 01:22:13 AM 18.3333 -67.1000 130° Southeast 380 437 15,300 -1,686 Descending San Juan Center
Thu 01:23:14 AM 18.2500 -67.0333 143° Southeast 370 426 13,800 -1,537 Descending San Juan Center
Thu 01:24:14 AM 18.1833 -66.9500 130° Southeast 350 403 12,200 -1,500 Descending San Juan Center
Thu 01:25:14 AM 18.1167 -66.8833 136° Southeast 330 380 10,800 -1,388 Descending San Juan Center
Thu 01:26:15 AM 18.0667 -66.8167 128° Southeast 290 334 9,400 -1,289 Descending San Juan Center
Thu 01:27:15 AM 18.0000 -66.7667 144° Southeast 280 322 8,200 -1,200 Descending San Juan Center
Thu 01:28:15 AM 17.9500 -66.7167 136° Southeast 270 311 7,000 -800 Descending San Juan Center
Thu 01:29:15 AM 17.9000 -66.6500 128° Southeast 260 299 6,600 -397 Descending San Juan Center
Thu 01:30:16 AM 17.8667 -66.5833 118° Southeast 270 311 6,200 -843 Descending San Juan Center
Thu 01:31:16 AM 17.8500 -66.5167 105° East 270 311 4,900 -1,350 Descending San Juan Center
Thu 01:32:16 AM 17.8500 -66.4500 90° East 240 276 3,500 -1,091 Descending San Juan Center
Thu 01:33:17 AM 17.8833 -66.4000 55° Northeast 230 265 2,700 -397 Descending San Juan Center
Thu 01:34:17 AM 17.9333 -66.4167 342° North 190 219 2,700 -400 Level San Juan Center
Thu 01:35:17 AM 17.9667 -66.4500 316° Northwest 200 230 1,900 -800 Descending San Juan Center
Thu 01:37:00 AM 18.0000 -66.5500 309° West  Level FlightAware Approximate

Login

Don't have an account? Register now (free) for customized features, flight alerts, and more!